CheckWX is a tool to help pilots better visualize weather data.  It is not intended as a substitute for an official pre-flight weather briefing.

08:40:36 UTC

EDDC METAR
Dresden Airport
Dresden, Germany
Current

21 mins ago

EDDC 260820Z VRB02KT 7000 NSC M02/M03 Q1019 NOSIG
Observed
Jan-26 @ 08:20 UTC
Wind
  • Variable at 2 KTS
Visibility
7,000 meters
Flight Rules
MVFR
Cloud Levels
  • Clear skies
Temperature
-2°C / 28°F
Dewpoint
-3°C / 27°F
Humidity
93%
Altimeter
30.09" Hg
Pressure
1018.92 hPa
Previous

51 mins ago

EDDC 260750Z 20004KT 7000 NSC M03/M04 Q1019 NOSIG
Observed
Jan-26 @ 07:50 UTC
Wind
  • 200° at 4 KTS
Visibility
7,000 meters
Flight Rules
MVFR
Cloud Levels
  • Clear skies
Temperature
-3°C / 27°F
Dewpoint
-4°C / 25°F
Humidity
93%
Altimeter
30.09" Hg
Pressure
1018.92 hPa
Previous

1 hour ago

EDDC 260720Z 22003KT 180V250 6000 NSC M04/M04 Q1019 NOSIG
Observed
Jan-26 @ 07:20 UTC
Wind
  • 220° at 3 KTS
Visibility
6,000 meters
Flight Rules
MVFR
Cloud Levels
  • Clear skies
Temperature
-4°C / 25°F
Dewpoint
-4°C / 25°F
Humidity
100%
Altimeter
30.09" Hg
Pressure
1018.92 hPa